Time;durP1;ratioP1;P1;durP2;ratioP2;P2;SDS_P1;SDS_P2;PMS_P1;PMS_P2;Temp;Humidity;BMP_temperature;BMP_pressure;BME280_temperature;BME280_humidity;BME280_pressure;Samples;Min_cycle;Max_cycle;Signal;HPM_P1;HPM_P2
2022/11/10 00:00:30;;;;;;;25.90;11.10;;;;;;;;;;6230703;23;20505;-91
2022/11/10 00:03:57;;;;;;;26.03;10.43;;;;;;;;;;6232132;23;20182;-91
2022/11/10 00:07:26;;;;;;;26.20;10.13;;;;;;;;;;6231300;23;20171;-91
2022/11/10 00:11:00;;;;;;;21.17;10.17;;;;;;;;;;6232208;23;20170;-92
2022/11/10 00:18:04;;;;;;;27.57;11.27;;;;;;;;;;6222846;23;20231;-91
2022/11/10 00:21:28;;;;;;;21.87;10.03;;;;;;;;;;6231164;23;20237;-90
2022/11/10 00:24:52;;;;;;;25.13;11.83;;;;;;;;;;6230244;23;20167;-90
2022/11/10 00:28:18;;;;;;;25.73;10.63;;;;;;;;;;6231712;23;20218;-90
2022/11/10 00:31:42;;;;;;;24.97;10.63;;;;;;;;;;6227908;23;20202;-89
2022/11/10 00:35:07;;;;;;;22.00;9.83;;;;;;;;;;6228801;23;20200;-89
2022/11/10 00:38:31;;;;;;;22.53;10.03;;;;;;;;;;6228435;23;20172;-92
2022/11/10 00:41:55;;;;;;;22.65;10.15;;;;;;;;;;6229287;23;20183;-88
2022/11/10 00:45:36;;;;;;;21.60;9.82;;;;;;;;;;6231046;23;20171;-88
2022/11/10 00:49:00;;;;;;;23.13;9.87;;;;;;;;;;6232698;23;20167;-91
2022/11/10 00:52:24;;;;;;;20.80;9.03;;;;;;;;;;6231914;23;20176;-90
2022/11/10 00:59:28;;;;;;;22.37;9.77;;;;;;;;;;6230648;23;20191;-91
2022/11/10 01:02:53;;;;;;;34.67;10.57;;;;;;;;;;6231551;23;20502;-90
2022/11/10 01:06:18;;;;;;;20.37;9.50;;;;;;;;;;6229447;23;20171;-91
2022/11/10 01:09:42;;;;;;;20.30;9.07;;;;;;;;;;6230411;23;20216;-88
2022/11/10 01:13:06;;;;;;;19.23;9.00;;;;;;;;;;6230457;23;20207;-92
2022/11/10 01:16:31;;;;;;;20.47;8.70;;;;;;;;;;6229222;23;20238;-89
2022/11/10 01:19:56;;;;;;;15.77;8.10;;;;;;;;;;6228308;23;20159;-90
2022/11/10 01:23:21;;;;;;;20.13;8.77;;;;;;;;;;6231173;23;20168;-89
2022/11/10 01:26:45;;;;;;;19.70;8.47;;;;;;;;;;6231431;23;20168;-89
2022/11/10 01:30:09;;;;;;;20.00;9.33;;;;;;;;;;6231778;23;20187;-90
2022/11/10 01:33:34;;;;;;;15.53;7.80;;;;;;;;;;6230794;23;20194;-91
2022/11/10 01:36:59;;;;;;;17.15;7.90;;;;;;;;;;6231750;23;20199;-90
2022/11/10 01:40:24;;;;;;;19.15;8.52;;;;;;;;;;6232209;23;20286;-90
2022/11/10 01:43:48;;;;;;;18.53;8.30;;;;;;;;;;6234367;23;20213;-92
2022/11/10 01:47:18;;;;;;;18.75;8.85;;;;;;;;;;6233338;23;20167;-90
2022/11/10 01:50:43;;;;;;;20.10;8.75;;;;;;;;;;6232532;23;20167;-90
2022/11/10 01:54:10;;;;;;;17.93;7.73;;;;;;;;;;6232482;23;20167;-94
2022/11/10 01:57:35;;;;;;;17.25;8.50;;;;;;;;;;6232579;23;20190;-89
2022/11/10 02:00:59;;;;;;;17.48;8.65;;;;;;;;;;6232035;23;20220;-90
2022/11/10 02:04:23;;;;;;;18.63;8.60;;;;;;;;;;6232409;23;20167;-91
2022/11/10 02:07:47;;;;;;;20.17;8.47;;;;;;;;;;6232372;23;20244;-91
2022/11/10 02:11:13;;;;;;;18.37;8.03;;;;;;;;;;6231858;23;20176;-91
2022/11/10 02:14:37;;;;;;;16.80;8.55;;;;;;;;;;6231268;23;20172;-90
2022/11/10 02:18:01;;;;;;;23.43;8.60;;;;;;;;;;6233000;23;20171;-90
2022/11/10 02:21:27;;;;;;;15.30;7.82;;;;;;;;;;6232281;23;20167;-92
2022/11/10 02:24:51;;;;;;;15.75;8.40;;;;;;;;;;6232291;23;20168;-91
2022/11/10 02:28:17;;;;;;;21.07;8.10;;;;;;;;;;6231351;23;20190;-91
2022/11/10 02:31:41;;;;;;;15.63;8.13;;;;;;;;;;6230704;23;20195;-90
2022/11/10 02:35:06;;;;;;;19.55;8.50;;;;;;;;;;6230877;23;20176;-89
2022/11/10 02:38:31;;;;;;;17.42;8.65;;;;;;;;;;6230527;23;20298;-90
2022/11/10 02:41:55;;;;;;;18.67;8.77;;;;;;;;;;6231423;23;20179;-90
2022/11/10 02:45:19;;;;;;;19.17;8.53;;;;;;;;;;6231250;23;20614;-90
2022/11/10 02:48:43;;;;;;;21.80;9.15;;;;;;;;;;6232812;23;20191;-91
2022/11/10 02:52:08;;;;;;;18.05;8.32;;;;;;;;;;6231849;23;20168;-90
2022/11/10 02:55:33;;;;;;;21.65;8.35;;;;;;;;;;6233053;23;20223;-91
2022/11/10 02:58:57;;;;;;;19.50;8.18;;;;;;;;;;6232619;23;20167;-91
2022/11/10 03:02:21;;;;;;;16.63;7.97;;;;;;;;;;6232265;23;20206;-91
2022/11/10 03:05:45;;;;;;;16.80;7.95;;;;;;;;;;6231094;23;20236;-91
2022/11/10 03:09:10;;;;;;;17.02;8.10;;;;;;;;;;6231759;23;20191;-90
2022/11/10 03:12:35;;;;;;;15.00;7.82;;;;;;;;;;6229643;23;20192;-90
2022/11/10 03:15:59;;;;;;;16.98;8.30;;;;;;;;;;6229933;23;20195;-92
2022/11/10 03:19:23;;;;;;;18.25;8.57;;;;;;;;;;6230459;23;20236;-90
2022/11/10 03:22:47;;;;;;;18.05;8.52;;;;;;;;;;6230520;23;20503;-90
2022/11/10 03:26:13;;;;;;;15.52;8.10;;;;;;;;;;6229579;23;20175;-91
2022/11/10 03:29:38;;;;;;;18.25;8.85;;;;;;;;;;6230082;23;20218;-90
2022/11/10 03:33:02;;;;;;;15.10;7.53;;;;;;;;;;6229644;23;20692;-91
2022/11/10 03:36:26;;;;;;;18.13;8.27;;;;;;;;;;6229180;23;20187;-89
2022/11/10 03:39:50;;;;;;;19.15;9.02;;;;;;;;;;6229833;23;20605;-89
2022/11/10 03:43:15;;;;;;;19.50;9.30;;;;;;;;;;6229233;23;20220;-89
2022/11/10 03:46:41;;;;;;;18.73;8.48;;;;;;;;;;6227833;23;20618;-90
2022/11/10 03:50:06;;;;;;;17.63;9.23;;;;;;;;;;6229018;23;20236;-90
2022/11/10 03:53:30;;;;;;;16.13;8.23;;;;;;;;;;6229476;23;20243;-90
2022/11/10 03:56:55;;;;;;;16.45;8.00;;;;;;;;;;6228069;23;20187;-91
2022/11/10 04:00:19;;;;;;;15.80;7.63;;;;;;;;;;6229190;23;20187;-90
2022/11/10 04:03:45;;;;;;;18.83;8.65;;;;;;;;;;6229335;23;20187;-90
2022/11/10 04:10:51;;;;;;;17.30;8.38;;;;;;;;;;6229024;23;20233;-90
2022/11/10 04:18:19;;;;;;;37.40;11.50;;;;;;;;;;6228878;23;20195;-91
2022/11/10 04:21:44;;;;;;;20.20;10.35;;;;;;;;;;6232400;23;20246;-91
2022/11/10 04:25:08;;;;;;;21.50;8.45;;;;;;;;;;6228898;23;20183;-90
2022/11/10 04:28:31;;;;;;;20.88;8.98;;;;;;;;;;6228763;23;20159;-90
2022/11/10 04:31:55;;;;;;;19.05;8.68;;;;;;;;;;6229718;23;20191;-90
2022/11/10 04:35:20;;;;;;;19.45;8.70;;;;;;;;;;6227994;23;20244;-87
2022/11/10 04:38:45;;;;;;;20.75;9.27;;;;;;;;;;6228304;23;20221;-89
2022/11/10 04:42:10;;;;;;;19.52;9.00;;;;;;;;;;6228019;23;20179;-90
2022/11/10 04:45:46;;;;;;;17.57;9.03;;;;;;;;;;6228583;23;20171;-91
2022/11/10 04:49:11;;;;;;;17.80;8.85;;;;;;;;;;6227684;23;20187;-89
2022/11/10 04:52:35;;;;;;;19.30;9.40;;;;;;;;;;6228188;23;20179;-90
2022/11/10 04:56:01;;;;;;;20.10;9.37;;;;;;;;;;6228143;23;20551;-90
2022/11/10 04:59:25;;;;;;;17.53;8.93;;;;;;;;;;6231297;23;20610;-91
2022/11/10 05:02:50;;;;;;;18.10;8.35;;;;;;;;;;6229479;23;20182;-90
2022/11/10 05:06:17;;;;;;;18.80;9.40;;;;;;;;;;6230332;23;20187;-91
2022/11/10 05:09:41;;;;;;;21.52;9.80;;;;;;;;;;6230866;23;20172;-91
2022/11/10 05:13:10;;;;;;;19.35;9.40;;;;;;;;;;6230613;23;20155;-92
2022/11/10 05:16:36;;;;;;;18.77;9.45;;;;;;;;;;6230963;23;20195;-89
2022/11/10 05:20:00;;;;;;;21.15;9.63;;;;;;;;;;6229948;23;20228;-92
2022/11/10 05:23:40;;;;;;;22.33;9.55;;;;;;;;;;6229099;23;20195;-90
2022/11/10 05:27:03;;;;;;;18.08;9.00;;;;;;;;;;6231157;23;20172;-90
2022/11/10 05:30:29;;;;;;;22.90;9.57;;;;;;;;;;6230251;23;20262;-90
2022/11/10 05:33:53;;;;;;;18.00;8.68;;;;;;;;;;6232061;23;20151;-90
2022/11/10 05:37:17;;;;;;;19.02;9.30;;;;;;;;;;6230215;23;20195;-90
2022/11/10 05:40:41;;;;;;;19.55;9.13;;;;;;;;;;6231877;23;20638;-90
2022/11/10 05:44:06;;;;;;;19.05;8.77;;;;;;;;;;6229794;23;20635;-90
2022/11/10 05:47:32;;;;;;;21.00;9.35;;;;;;;;;;6229910;23;20191;-92
2022/11/10 05:50:56;;;;;;;20.55;9.38;;;;;;;;;;6229081;23;20179;-90
2022/11/10 05:54:20;;;;;;;17.90;9.05;;;;;;;;;;6229269;23;20262;-90
2022/11/10 05:57:44;;;;;;;20.67;9.10;;;;;;;;;;6228097;23;20530;-90
2022/11/10 06:01:08;;;;;;;21.00;10.00;;;;;;;;;;6229340;23;20179;-90
2022/11/10 06:04:33;;;;;;;21.70;9.90;;;;;;;;;;6231365;23;20171;-91
2022/11/10 06:07:59;;;;;;;19.15;9.38;;;;;;;;;;6229141;23;20566;-92
2022/11/10 06:11:23;;;;;;;20.25;9.18;;;;;;;;;;6229944;23;20179;-91
2022/11/10 06:14:48;;;;;;;19.38;9.07;;;;;;;;;;6228113;23;20167;-90
2022/11/10 06:18:12;;;;;;;19.02;9.25;;;;;;;;;;6229850;23;20219;-89
2022/11/10 06:21:37;;;;;;;19.60;9.27;;;;;;;;;;6229512;23;20172;-90
2022/11/10 06:25:02;;;;;;;19.88;9.48;;;;;;;;;;6227845;23;20229;-90
2022/11/10 06:28:26;;;;;;;19.65;8.57;;;;;;;;;;6227104;23;20196;-90
2022/11/10 06:31:51;;;;;;;18.40;8.98;;;;;;;;;;6230571;23;20195;-90
2022/11/10 06:35:18;;;;;;;19.67;9.18;;;;;;;;;;6230362;23;20194;-89
2022/11/10 06:38:44;;;;;;;21.10;9.15;;;;;;;;;;6233638;23;20207;-90
2022/11/10 06:42:08;;;;;;;23.10;10.20;;;;;;;;;;6231509;23;20195;-88
2022/11/10 06:45:56;;;;;;;19.52;9.23;;;;;;;;;;6228693;23;20354;-88
2022/11/10 06:49:22;;;;;;;21.40;9.77;;;;;;;;;;6229936;23;20550;-89
2022/11/10 06:52:54;;;;;;;20.50;10.80;;;;;;;;;;6229718;23;20174;-88
2022/11/10 06:56:19;;;;;;;21.58;9.60;;;;;;;;;;6229018;23;20171;-90
2022/11/10 06:59:43;;;;;;;19.60;9.35;;;;;;;;;;6230651;23;20191;-91
2022/11/10 07:03:08;;;;;;;20.88;9.23;;;;;;;;;;6229801;23;20176;-87
2022/11/10 07:06:33;;;;;;;20.23;9.43;;;;;;;;;;6232771;23;20210;-88
2022/11/10 07:09:57;;;;;;;23.50;10.63;;;;;;;;;;6228524;23;20187;-88
2022/11/10 07:13:23;;;;;;;17.45;8.70;;;;;;;;;;6228927;23;20188;-89
2022/11/10 07:16:47;;;;;;;22.80;9.43;;;;;;;;;;6227819;23;20666;-91
2022/11/10 07:20:12;;;;;;;18.40;8.93;;;;;;;;;;6226850;23;20668;-90
2022/11/10 07:23:36;;;;;;;18.48;8.73;;;;;;;;;;6227910;23;20226;-90
2022/11/10 07:27:01;;;;;;;20.20;9.75;;;;;;;;;;6229709;23;20179;-88
2022/11/10 07:30:29;;;;;;;19.38;9.20;;;;;;;;;;6228820;23;20167;-88
2022/11/10 07:33:54;;;;;;;21.50;8.93;;;;;;;;;;6230684;23;20164;-90
2022/11/10 07:37:17;;;;;;;21.95;8.75;;;;;;;;;;6231523;23;20179;-88
2022/11/10 07:40:41;;;;;;;25.20;8.82;;;;;;;;;;6228655;23;20240;-90
2022/11/10 07:44:06;;;;;;;30.73;9.73;;;;;;;;;;6232035;23;20171;-88
2022/11/10 07:47:33;;;;;;;28.70;10.13;;;;;;;;;;6228797;23;20195;-90
2022/11/10 07:50:57;;;;;;;20.55;8.60;;;;;;;;;;6228418;23;20226;-89
2022/11/10 07:54:22;;;;;;;26.65;9.80;;;;;;;;;;6229315;23;20162;-90
2022/11/10 07:57:47;;;;;;;33.25;12.30;;;;;;;;;;6230766;23;20275;-92
2022/11/10 08:01:11;;;;;;;22.98;10.20;;;;;;;;;;6230642;23;20163;-91
2022/11/10 08:04:37;;;;;;;23.08;10.13;;;;;;;;;;6228752;23;20168;-90
2022/11/10 08:08:01;;;;;;;40.10;10.45;;;;;;;;;;6226737;23;20163;-90
2022/11/10 08:11:25;;;;;;;25.65;10.00;;;;;;;;;;6227350;23;20171;-91
2022/11/10 08:14:49;;;;;;;27.13;10.15;;;;;;;;;;6227496;23;20191;-91
2022/11/10 08:18:16;;;;;;;24.58;10.38;;;;;;;;;;6227415;23;20191;-92
2022/11/10 08:21:42;;;;;;;26.25;10.73;;;;;;;;;;6229305;23;20216;-89
2022/11/10 08:25:06;;;;;;;24.95;11.48;;;;;;;;;;6228872;23;20190;-91
2022/11/10 08:28:30;;;;;;;21.70;10.77;;;;;;;;;;6228831;23;20171;-90
2022/11/10 08:31:55;;;;;;;22.48;10.02;;;;;;;;;;6230347;23;20179;-90
2022/11/10 08:35:19;;;;;;;26.05;9.52;;;;;;;;;;6233555;23;20187;-90
2022/11/10 08:38:46;;;;;;;26.67;10.95;;;;;;;;;;6233671;23;20186;-91
2022/11/10 08:42:10;;;;;;;28.05;10.55;;;;;;;;;;6232010;23;20504;-90
2022/11/10 08:45:35;;;;;;;26.52;11.07;;;;;;;;;;6232182;23;20171;-90
2022/11/10 08:49:01;;;;;;;32.20;11.90;;;;;;;;;;6231650;23;20167;-91
2022/11/10 08:52:25;;;;;;;31.20;12.10;;;;;;;;;;6232999;23;20172;-91
2022/11/10 08:55:51;;;;;;;31.92;11.10;;;;;;;;;;6230540;23;20179;-90
2022/11/10 08:59:15;;;;;;;43.92;14.25;;;;;;;;;;6231716;23;20190;-90
2022/11/10 09:02:39;;;;;;;37.13;13.45;;;;;;;;;;6233293;23;20214;-91
2022/11/10 09:06:04;;;;;;;33.78;13.30;;;;;;;;;;6231571;23;20564;-90
2022/11/10 09:09:28;;;;;;;44.08;14.43;;;;;;;;;;6230445;23;20191;-90
2022/11/10 09:12:54;;;;;;;44.58;13.93;;;;;;;;;;6231120;23;20172;-88
2022/11/10 09:16:19;;;;;;;46.08;16.17;;;;;;;;;;6230688;23;20167;-90
2022/11/10 09:19:43;;;;;;;34.65;12.30;;;;;;;;;;6230750;23;20182;-90
2022/11/10 09:23:09;;;;;;;37.28;13.93;;;;;;;;;;6233392;23;20219;-92
2022/11/10 09:26:39;;;;;;;39.25;13.70;;;;;;;;;;6231809;23;20176;-89
2022/11/10 09:30:06;;;;;;;36.42;13.38;;;;;;;;;;6231346;23;20179;-91
2022/11/10 09:33:30;;;;;;;40.67;14.10;;;;;;;;;;6232098;23;20168;-91
2022/11/10 09:36:54;;;;;;;40.88;13.32;;;;;;;;;;6230491;23;20167;-89
2022/11/10 09:40:19;;;;;;;52.30;15.07;;;;;;;;;;6234526;23;20195;-91
2022/11/10 09:43:47;;;;;;;50.35;15.20;;;;;;;;;;6232060;23;20175;-91
2022/11/10 09:47:15;;;;;;;45.28;15.38;;;;;;;;;;6231435;23;20151;-90
2022/11/10 09:50:42;;;;;;;54.40;15.75;;;;;;;;;;6233288;23;20174;-91
2022/11/10 09:54:08;;;;;;;40.13;14.02;;;;;;;;;;6231861;23;20172;-91
2022/11/10 09:57:32;;;;;;;39.83;14.18;;;;;;;;;;6231277;23;20170;-91
2022/11/10 10:01:00;;;;;;;46.70;13.48;;;;;;;;;;6232136;23;20171;-90
2022/11/10 10:04:35;;;;;;;43.70;16.10;;;;;;;;;;6232070;23;20194;-91
2022/11/10 10:08:01;;;;;;;42.67;15.68;;;;;;;;;;6232020;23;20175;-86
2022/11/10 10:11:30;;;;;;;45.25;15.10;;;;;;;;;;6231639;23;20167;-91
2022/11/10 10:15:11;;;;;;;37.00;14.10;;;;;;;;;;6229879;23;20170;-92
2022/11/10 10:18:40;;;;;;;34.63;12.60;;;;;;;;;;6231602;23;20195;-90
2022/11/10 10:22:24;;;;;;;25.90;10.90;;;;;;;;;;6231283;23;20175;-91
2022/11/10 10:25:49;;;;;;;27.58;10.45;;;;;;;;;;6229802;23;20168;-89
2022/11/10 10:29:16;;;;;;;32.38;10.45;;;;;;;;;;6229630;23;20175;-91
2022/11/10 10:32:41;;;;;;;26.23;10.52;;;;;;;;;;6230633;23;20195;-90
2022/11/10 10:36:08;;;;;;;33.13;11.35;;;;;;;;;;6229980;23;20224;-90
2022/11/10 10:39:37;;;;;;;28.75;10.75;;;;;;;;;;6232116;23;20179;-91
2022/11/10 10:43:01;;;;;;;28.15;11.13;;;;;;;;;;6230336;23;20150;-90
2022/11/10 10:46:28;;;;;;;29.77;10.80;;;;;;;;;;6228883;23;20187;-91
2022/11/10 10:49:52;;;;;;;23.65;9.82;;;;;;;;;;6229860;23;20187;-91
2022/11/10 10:53:17;;;;;;;24.85;9.85;;;;;;;;;;6228962;23;20188;-90
2022/11/10 10:56:43;;;;;;;28.10;10.20;;;;;;;;;;6231392;23;20167;-91
2022/11/10 11:00:19;;;;;;;24.50;9.52;;;;;;;;;;6230675;23;20156;-92
2022/11/10 11:03:48;;;;;;;22.42;9.02;;;;;;;;;;6230459;23;20191;-91
2022/11/10 11:07:21;;;;;;;24.52;9.55;;;;;;;;;;6226708;23;20167;-91
2022/11/10 11:10:46;;;;;;;33.00;9.82;;;;;;;;;;6228913;23;20167;-90
2022/11/10 11:14:22;;;;;;;17.48;8.30;;;;;;;;;;6231853;23;20236;-90
2022/11/10 11:17:54;;;;;;;20.02;7.70;;;;;;;;;;6231206;23;20190;-92
2022/11/10 11:21:27;;;;;;;17.58;7.88;;;;;;;;;;6229923;23;20151;-90
2022/11/10 11:24:54;;;;;;;16.17;7.63;;;;;;;;;;6231529;23;20266;-91
2022/11/10 11:28:21;;;;;;;15.80;6.63;;;;;;;;;;6232380;23;20206;-90
2022/11/10 11:31:53;;;;;;;13.10;6.13;;;;;;;;;;6231934;23;20194;-90
2022/11/10 11:35:21;;;;;;;17.35;6.25;;;;;;;;;;6229859;23;20219;-91
2022/11/10 11:38:52;;;;;;;14.50;6.10;;;;;;;;;;6229306;23;20194;-90
2022/11/10 11:42:27;;;;;;;15.75;6.35;;;;;;;;;;6228324;23;20167;-89
2022/11/10 11:45:55;;;;;;;15.45;7.25;;;;;;;;;;6229009;23;20218;-89
2022/11/10 11:49:39;;;;;;;13.65;6.78;;;;;;;;;;6228298;23;20178;-91
2022/11/10 11:53:13;;;;;;;14.93;6.47;;;;;;;;;;6230647;23;20674;-90
2022/11/10 11:56:40;;;;;;;13.43;6.75;;;;;;;;;;6230117;23;20166;-91
2022/11/10 12:00:09;;;;;;;15.05;5.80;;;;;;;;;;6230241;23;20297;-90
2022/11/10 12:03:57;;;;;;;14.50;5.63;;;;;;;;;;6229646;23;20241;-90
2022/11/10 12:11:19;;;;;;;14.98;5.07;;;;;;;;;;6231433;23;20191;-87
2022/11/10 12:14:49;;;;;;;12.48;5.88;;;;;;;;;;6230673;23;20187;-90
2022/11/10 12:18:16;;;;;;;14.88;5.28;;;;;;;;;;6230833;23;20339;-89
2022/11/10 12:21:44;;;;;;;20.52;5.32;;;;;;;;;;6230157;23;20186;-88
2022/11/10 12:25:14;;;;;;;16.58;5.70;;;;;;;;;;6231335;23;20216;-90
2022/11/10 12:28:42;;;;;;;13.18;5.15;;;;;;;;;;6233883;23;20167;-90
2022/11/10 12:32:10;;;;;;;16.33;6.70;;;;;;;;;;6232903;23;20190;-92
2022/11/10 12:35:36;;;;;;;12.65;5.68;;;;;;;;;;6231394;23;20166;-91
2022/11/10 12:39:04;;;;;;;12.88;5.30;;;;;;;;;;6229352;23;20248;-94
2022/11/10 12:42:29;;;;;;;14.93;6.45;;;;;;;;;;6231922;23;20214;-90
2022/11/10 12:46:01;;;;;;;15.43;5.90;;;;;;;;;;6230842;23;20171;-89
2022/11/10 12:49:28;;;;;;;18.65;5.13;;;;;;;;;;6230620;23;20174;-89
2022/11/10 12:52:54;;;;;;;20.40;6.07;;;;;;;;;;6230332;23;20269;-90
2022/11/10 12:56:19;;;;;;;12.65;6.13;;;;;;;;;;6229322;23;20393;-90
2022/11/10 12:59:56;;;;;;;18.77;5.80;;;;;;;;;;6229607;23;20176;-90
2022/11/10 13:03:27;;;;;;;13.98;5.10;;;;;;;;;;6228503;23;20298;-90
2022/11/10 13:07:16;;;;;;;13.27;5.53;;;;;;;;;;6230707;23;20178;-91
2022/11/10 13:10:49;;;;;;;14.20;6.10;;;;;;;;;;6229468;23;20228;-90
2022/11/10 13:14:24;;;;;;;16.55;5.90;;;;;;;;;;6231805;23;20191;-88
2022/11/10 13:17:55;;;;;;;12.45;6.18;;;;;;;;;;6230397;23;20183;-91
2022/11/10 13:21:41;;;;;;;13.15;5.55;;;;;;;;;;6230509;23;20523;-89
2022/11/10 13:25:26;;;;;;;11.40;5.43;;;;;;;;;;6231729;23;20529;-88
2022/11/10 13:28:57;;;;;;;14.02;5.78;;;;;;;;;;6232184;23;20198;-90
2022/11/10 13:32:26;;;;;;;17.77;5.78;;;;;;;;;;6229932;23;20194;-89
2022/11/10 13:35:56;;;;;;;14.85;6.00;;;;;;;;;;6236945;23;20186;-88
2022/11/10 13:39:26;;;;;;;16.00;5.95;;;;;;;;;;6231910;23;20217;-90
2022/11/10 13:43:13;;;;;;;12.80;6.03;;;;;;;;;;6233506;23;20167;-88
2022/11/10 13:46:45;;;;;;;14.30;5.97;;;;;;;;;;6231820;23;20171;-93
2022/11/10 13:50:18;;;;;;;15.00;6.15;;;;;;;;;;6232610;23;20191;-90
2022/11/10 13:53:52;;;;;;;17.83;6.00;;;;;;;;;;6232140;23;20186;-90
2022/11/10 13:57:27;;;;;;;14.88;5.65;;;;;;;;;;6233587;23;20155;-91
2022/11/10 14:01:17;;;;;;;15.98;6.40;;;;;;;;;;6232524;23;20218;-91
2022/11/10 14:04:47;;;;;;;19.25;6.55;;;;;;;;;;6232126;23;20191;-93
2022/11/10 14:08:13;;;;;;;13.57;5.82;;;;;;;;;;6232598;23;20291;-91
2022/11/10 14:11:41;;;;;;;20.88;6.43;;;;;;;;;;6234091;23;20151;-90
2022/11/10 14:15:07;;;;;;;13.02;6.05;;;;;;;;;;6231753;23;20214;-90
2022/11/10 14:18:39;;;;;;;11.43;5.93;;;;;;;;;;6230080;23;20169;-91
2022/11/10 14:22:09;;;;;;;15.82;5.60;;;;;;;;;;6231334;23;20599;-92
2022/11/10 14:25:37;;;;;;;16.10;5.68;;;;;;;;;;6230947;23;20259;-90
2022/11/10 14:29:16;;;;;;;10.65;5.53;;;;;;;;;;6231718;23;20171;-92
2022/11/10 14:32:40;;;;;;;11.45;5.45;;;;;;;;;;6228868;23;20199;-89
2022/11/10 14:36:07;;;;;;;17.67;5.82;;;;;;;;;;6230681;23;20155;-89
2022/11/10 14:39:34;;;;;;;18.58;6.35;;;;;;;;;;6230387;23;20272;-91
2022/11/10 14:43:00;;;;;;;16.13;5.78;;;;;;;;;;6232245;23;20164;-90
2022/11/10 14:46:25;;;;;;;14.10;6.32;;;;;;;;;;6228937;23;20175;-90
2022/11/10 14:50:03;;;;;;;15.35;5.07;;;;;;;;;;6231408;23;20164;-90
2022/11/10 14:53:30;;;;;;;16.63;6.28;;;;;;;;;;6231122;23;20201;-89
2022/11/10 14:56:57;;;;;;;17.35;6.63;;;;;;;;;;6228384;23;20164;-91
2022/11/10 15:00:27;;;;;;;17.15;6.05;;;;;;;;;;6230144;23;20218;-91
2022/11/10 15:03:51;;;;;;;13.88;5.85;;;;;;;;;;6231211;23;20191;-89
2022/11/10 15:10:57;;;;;;;18.48;6.78;;;;;;;;;;6232284;23;20163;-90
2022/11/10 15:14:41;;;;;;;18.45;7.68;;;;;;;;;;6234220;23;20171;-91
2022/11/10 15:18:07;;;;;;;18.15;7.18;;;;;;;;;;6240034;23;20186;-89
2022/11/10 15:21:32;;;;;;;53.78;20.90;;;;;;;;;;6239176;23;20258;-91
2022/11/10 15:24:59;;;;;;;41.53;15.13;;;;;;;;;;6238251;23;20151;-92
2022/11/10 15:32:16;;;;;;;18.38;7.85;;;;;;;;;;6235286;23;20186;-89
2022/11/10 15:35:41;;;;;;;19.08;7.03;;;;;;;;;;6232465;23;20167;-89
2022/11/10 15:39:06;;;;;;;23.50;9.40;;;;;;;;;;6234724;23;20247;-91
2022/11/10 15:46:13;;;;;;;15.98;7.97;;;;;;;;;;6232591;23;20191;-88
2022/11/10 15:49:52;;;;;;;21.30;10.95;;;;;;;;;;6233491;23;20175;-89
2022/11/10 15:53:22;;;;;;;27.05;13.27;;;;;;;;;;6234081;23;20163;-89
2022/11/10 15:56:46;;;;;;;25.17;11.60;;;;;;;;;;6234322;23;20159;-89
2022/11/10 16:03:53;;;;;;;23.25;11.48;;;;;;;;;;6235222;23;20187;-91
2022/11/10 16:07:19;;;;;;;24.08;10.65;;;;;;;;;;6235893;23;20164;-90
2022/11/10 16:10:46;;;;;;;40.28;15.63;;;;;;;;;;6237349;23;20175;-90
2022/11/10 16:14:16;;;;;;;43.10;17.00;;;;;;;;;;6235376;23;20167;-90
2022/11/10 16:17:42;;;;;;;31.70;11.65;;;;;;;;;;6237005;23;20167;-89
2022/11/10 16:21:08;;;;;;;27.88;11.30;;;;;;;;;;6236767;23;20203;-92
2022/11/10 16:24:36;;;;;;;23.35;11.52;;;;;;;;;;6236314;23;20167;-91
2022/11/10 16:28:06;;;;;;;25.95;12.45;;;;;;;;;;6233845;23;20159;-88
2022/11/10 16:35:19;;;;;;;34.83;14.20;;;;;;;;;;6238658;23;20170;-89
2022/11/10 16:38:49;;;;;;;27.48;11.68;;;;;;;;;;6239163;23;20216;-91
2022/11/10 16:46:20;;;;;;;23.13;10.32;;;;;;;;;;6234047;23;20178;-88
2022/11/10 16:49:46;;;;;;;29.98;13.10;;;;;;;;;;6234472;23;20167;-90
2022/11/10 16:56:53;;;;;;;30.95;13.25;;;;;;;;;;6240758;23;20182;-91
2022/11/10 17:00:19;;;;;;;39.85;14.38;;;;;;;;;;6237845;23;20650;-90
2022/11/10 17:03:47;;;;;;;104.38;44.03;;;;;;;;;;6237817;23;20171;-90
2022/11/10 17:07:12;;;;;;;49.28;17.23;;;;;;;;;;6236434;23;20206;-88
2022/11/10 17:10:36;;;;;;;34.28;14.10;;;;;;;;;;6234685;23;20500;-90
2022/11/10 17:14:00;;;;;;;87.78;37.90;;;;;;;;;;6236381;23;20210;-89
2022/11/10 17:17:25;;;;;;;67.78;27.55;;;;;;;;;;6233618;23;20155;-89
2022/11/10 17:20:53;;;;;;;56.30;21.00;;;;;;;;;;6234131;23;20194;-89
2022/11/10 17:24:19;;;;;;;30.90;13.77;;;;;;;;;;6232087;23;20175;-90
2022/11/10 17:27:47;;;;;;;49.80;22.55;;;;;;;;;;6234234;23;20299;-90
2022/11/10 17:31:12;;;;;;;85.63;28.00;;;;;;;;;;6234112;23;20214;-91
2022/11/10 17:34:36;;;;;;;45.90;16.45;;;;;;;;;;6233311;23;20209;-89
2022/11/10 17:38:02;;;;;;;48.40;19.17;;;;;;;;;;6233812;23;20175;-90
2022/11/10 17:41:41;;;;;;;53.60;19.15;;;;;;;;;;6231997;23;20206;-90
2022/11/10 17:45:15;;;;;;;36.78;15.88;;;;;;;;;;6234900;23;20179;-90
2022/11/10 17:52:26;;;;;;;48.50;18.10;;;;;;;;;;6234224;23;20162;-92
2022/11/10 17:55:53;;;;;;;155.90;59.88;;;;;;;;;;6231840;23;20195;-91
2022/11/10 17:59:17;;;;;;;53.72;22.15;;;;;;;;;;6233990;23;20171;-89
2022/11/10 18:02:43;;;;;;;32.45;13.60;;;;;;;;;;6233877;23;20175;-86
2022/11/10 18:06:09;;;;;;;43.27;17.50;;;;;;;;;;6233791;23;20163;-89
2022/11/10 18:09:34;;;;;;;38.80;16.55;;;;;;;;;;6230443;23;20167;-89
2022/11/10 18:13:00;;;;;;;37.83;16.73;;;;;;;;;;6231688;23;20654;-88
2022/11/10 18:16:24;;;;;;;46.10;16.47;;;;;;;;;;6231040;23;20171;-88
2022/11/10 18:19:59;;;;;;;53.03;18.52;;;;;;;;;;6232545;23;20175;-90
2022/11/10 18:23:23;;;;;;;42.22;15.35;;;;;;;;;;6231101;23;20175;-90
2022/11/10 18:26:48;;;;;;;47.78;16.08;;;;;;;;;;6233876;23;20182;-89
2022/11/10 18:30:17;;;;;;;34.28;13.13;;;;;;;;;;6235518;23;20164;-91
2022/11/10 18:33:42;;;;;;;47.63;15.25;;;;;;;;;;6233788;23;20187;-91
2022/11/10 18:37:06;;;;;;;51.38;15.15;;;;;;;;;;6234863;23;20190;-90
2022/11/10 18:40:35;;;;;;;44.78;14.73;;;;;;;;;;6238062;23;20195;-90
2022/11/10 18:44:05;;;;;;;148.43;52.05;;;;;;;;;;6238314;23;20156;-88
2022/11/10 18:51:53;;;;;;;41.05;14.82;;;;;;;;;;6238438;23;20147;-87
2022/11/10 23:05:15;;;;;;;63.93;12.03;;;;;;;;;;6226395;22;20215;-89
2022/11/10 23:08:40;;;;;;;71.50;11.73;;;;;;;;;;6234110;23;20175;-89
2022/11/10 23:12:04;;;;;;;55.93;11.83;;;;;;;;;;6234960;23;20187;-89
2022/11/10 23:15:33;;;;;;;85.80;11.67;;;;;;;;;;6235190;23;20155;-90
2022/11/10 23:19:01;;;;;;;112.77;12.10;;;;;;;;;;6233858;23;20175;-89
2022/11/10 23:22:26;;;;;;;146.47;12.47;;;;;;;;;;6234539;23;20231;-88
2022/11/10 23:25:56;;;;;;;113.00;12.70;;;;;;;;;;6233810;23;20159;-88
2022/11/10 23:29:20;;;;;;;47.17;12.60;;;;;;;;;;6232648;23;20179;-90
2022/11/10 23:32:45;;;;;;;66.03;11.27;;;;;;;;;;6232101;23;20159;-90
2022/11/10 23:36:10;;;;;;;52.37;11.33;;;;;;;;;;6232917;23;20212;-88
2022/11/10 23:39:36;;;;;;;54.07;11.17;;;;;;;;;;6233052;23;20175;-89
2022/11/10 23:43:00;;;;;;;49.77;11.30;;;;;;;;;;6230674;23;20186;-88
2022/11/10 23:46:32;;;;;;;132.10;12.73;;;;;;;;;;6231206;23;20171;-89
2022/11/10 23:49:56;;;;;;;43.47;10.77;;;;;;;;;;6230911;23;20214;-90
2022/11/10 23:53:21;;;;;;;41.47;10.70;;;;;;;;;;6232049;23;20172;-89
2022/11/10 23:56:46;;;;;;;30.93;8.87;;;;;;;;;;6230920;23;20167;-89
